createdAt,value
2022-10-31T00:01:41.917Z,14.97
2022-10-31T00:04:11.333Z,9.40
2022-10-31T00:06:37.879Z,10.87
2022-10-31T00:09:08.267Z,12.30
2022-10-31T00:11:34.847Z,9.40
2022-10-31T00:14:05.157Z,10.10
2022-10-31T00:16:34.087Z,11.23
2022-10-31T00:19:03.749Z,8.50
2022-10-31T00:21:31.482Z,9.33
2022-10-31T00:23:59.700Z,11.03
2022-10-31T00:26:28.882Z,11.40
2022-10-31T00:28:55.504Z,8.67
2022-10-31T00:31:22.158Z,9.23
2022-10-31T00:33:55.941Z,13.03
2022-10-31T00:36:22.480Z,11.33
2022-10-31T00:38:50.301Z,8.47
2022-10-31T00:41:18.743Z,9.87
2022-10-31T00:43:45.681Z,8.90
2022-10-31T00:46:13.686Z,8.13
2022-10-31T00:48:40.363Z,11.03
2022-10-31T00:51:07.523Z,9.53
2022-10-31T00:53:34.213Z,11.77
2022-10-31T00:56:03.863Z,9.70
2022-10-31T00:58:30.489Z,9.50
2022-10-31T01:00:57.462Z,10.07
2022-10-31T01:03:26.442Z,11.60
2022-10-31T01:06:07.755Z,10.20
2022-10-31T01:08:36.542Z,7.87
2022-10-31T01:11:07.873Z,9.47
2022-10-31T01:13:35.803Z,8.67
2022-10-31T01:16:04.295Z,8.77
2022-10-31T01:18:31.239Z,7.87
2022-10-31T01:21:00.107Z,8.53
2022-10-31T01:23:26.836Z,8.40
2022-10-31T01:26:15.308Z,7.47
2022-10-31T01:28:53.891Z,8.20
2022-10-31T01:31:22.867Z,6.40
2022-10-31T01:33:54.022Z,9.97
2022-10-31T01:36:22.492Z,7.27
2022-10-31T01:38:50.100Z,7.90
2022-10-31T01:41:22.960Z,10.47
2022-10-31T01:43:55.651Z,9.63
2022-10-31T01:46:27.074Z,9.80
2022-10-31T01:48:58.808Z,14.23
2022-10-31T01:51:30.360Z,8.87
2022-10-31T01:54:01.184Z,8.00
2022-10-31T01:56:31.059Z,9.10
2022-10-31T01:59:02.979Z,7.13
2022-10-31T02:01:33.859Z,7.50
2022-10-31T02:04:00.580Z,7.93
2022-10-31T02:06:38.719Z,9.63
2022-10-31T02:09:09.996Z,9.97
2022-10-31T02:11:37.484Z,7.80
2022-10-31T02:14:07.415Z,6.20
2022-10-31T02:16:34.149Z,5.43
2022-10-31T02:19:00.864Z,7.13
2022-10-31T02:21:47.971Z,9.50
2022-10-31T02:24:17.102Z,9.80
2022-10-31T02:26:43.737Z,9.80
2022-10-31T02:29:12.872Z,4.57
2022-10-31T02:32:05.595Z,7.37
2022-10-31T02:34:56.826Z,6.40
2022-10-31T02:38:00.997Z,6.93
2022-10-31T02:41:06.074Z,9.03
2022-10-31T02:44:05.544Z,7.60
2022-10-31T02:46:45.787Z,4.70
2022-10-31T02:49:38.067Z,8.23
2022-10-31T02:52:34.680Z,6.27
2022-10-31T02:55:34.012Z,7.53
2022-10-31T02:58:12.191Z,4.93
2022-10-31T03:01:09.116Z,6.37
2022-10-31T03:04:03.924Z,7.53
2022-10-31T03:06:34.208Z,9.13
2022-10-31T03:09:32.100Z,4.83
2022-10-31T03:12:06.849Z,6.60
2022-10-31T03:14:48.406Z,10.33
2022-10-31T03:17:27.356Z,6.67
2022-10-31T03:19:57.990Z,10.60
2022-10-31T03:22:29.341Z,8.60
2022-10-31T03:24:57.376Z,6.60
2022-10-31T03:27:27.340Z,7.00
2022-10-31T03:29:57.218Z,12.03
2022-10-31T03:32:28.981Z,11.63
2022-10-31T03:35:00.379Z,7.60
2022-10-31T03:37:31.242Z,8.70
2022-10-31T03:40:01.047Z,8.47
2022-10-31T03:42:32.555Z,9.80
2022-10-31T03:45:11.693Z,9.37
2022-10-31T03:47:39.925Z,8.97
2022-10-31T03:50:09.699Z,11.63
2022-10-31T03:52:54.652Z,8.00
2022-10-31T03:55:29.431Z,9.97
2022-10-31T03:58:04.827Z,7.43
2022-10-31T04:00:38.947Z,8.67
2022-10-31T04:03:16.657Z,9.27
2022-10-31T04:05:47.400Z,8.67
2022-10-31T04:08:19.978Z,9.50
2022-10-31T04:10:49.258Z,8.17
2022-10-31T04:13:21.681Z,7.57
2022-10-31T04:15:50.560Z,7.97
2022-10-31T04:18:17.109Z,8.23
2022-10-31T04:20:43.708Z,10.17
2022-10-31T04:23:37.220Z,10.43
2022-10-31T04:26:04.000Z,9.13
2022-10-31T04:28:38.344Z,9.23
2022-10-31T04:31:05.020Z,10.50
2022-10-31T04:33:31.598Z,9.73
2022-10-31T04:36:01.261Z,8.03
2022-10-31T04:38:27.872Z,8.90
2022-10-31T04:40:56.367Z,10.40
2022-10-31T04:43:23.264Z,6.40
2022-10-31T04:45:54.240Z,5.77
2022-10-31T04:48:20.800Z,7.27
2022-10-31T04:50:49.485Z,5.00
2022-10-31T04:53:16.116Z,7.23
2022-10-31T04:55:44.607Z,8.57
2022-10-31T04:58:11.203Z,9.77
2022-10-31T05:00:37.915Z,6.43
2022-10-31T05:03:04.631Z,8.03
2022-10-31T05:05:32.381Z,5.93
2022-10-31T05:07:58.985Z,5.93
2022-10-31T05:10:28.437Z,7.37
2022-10-31T05:12:57.966Z,8.33
2022-10-31T05:15:26.569Z,7.47
2022-10-31T05:17:53.659Z,5.97
2022-10-31T05:20:23.938Z,9.13
2022-10-31T05:22:55.985Z,9.87
2022-10-31T05:25:27.581Z,10.40
2022-10-31T05:28:01.216Z,8.63
2022-10-31T05:30:34.068Z,14.20
2022-10-31T05:33:04.059Z,10.10
2022-10-31T05:35:35.515Z,18.70
2022-10-31T05:38:02.232Z,11.17
2022-10-31T05:40:29.029Z,16.50
2022-10-31T05:42:57.982Z,16.50
2022-10-31T05:45:27.591Z,21.67
2022-10-31T05:48:02.262Z,12.73
2022-10-31T05:50:33.044Z,7.27
2022-10-31T05:53:02.084Z,11.30
2022-10-31T05:55:29.957Z,11.70
2022-10-31T05:57:57.194Z,8.80
2022-10-31T06:00:25.293Z,16.90
2022-10-31T06:03:02.644Z,14.60
2022-10-31T06:05:30.419Z,18.83
2022-10-31T06:07:57.655Z,14.27
2022-10-31T06:10:25.069Z,17.47
2022-10-31T06:12:54.211Z,18.43
2022-10-31T06:15:24.116Z,15.63
2022-10-31T06:18:03.191Z,13.77
2022-10-31T06:20:30.041Z,14.37
2022-10-31T06:22:56.919Z,15.17
2022-10-31T06:25:23.852Z,12.20
2022-10-31T06:27:50.438Z,23.80
2022-10-31T06:30:17.095Z,14.90
2022-10-31T06:33:07.361Z,26.37
2022-10-31T06:35:34.190Z,22.37
2022-10-31T06:38:01.264Z,30.00
2022-10-31T06:40:28.179Z,22.70
2022-10-31T06:43:01.894Z,21.90
2022-10-31T06:45:29.192Z,24.57
2022-10-31T06:50:47.944Z,39.10
2022-10-31T06:53:17.536Z,25.67
2022-10-31T06:55:47.239Z,26.57
2022-10-31T06:58:13.913Z,37.17
2022-10-31T07:00:40.571Z,22.23
2022-10-31T07:03:12.272Z,16.37
2022-10-31T07:05:39.147Z,21.17
2022-10-31T07:08:09.542Z,19.67
2022-10-31T07:10:40.826Z,26.77
2022-10-31T07:13:12.106Z,19.87
2022-10-31T07:15:39.913Z,24.90
2022-10-31T07:18:09.019Z,23.73
2022-10-31T07:20:36.084Z,26.20
2022-10-31T07:23:03.237Z,15.80
2022-10-31T07:25:30.080Z,29.07
2022-10-31T07:28:04.522Z,15.93
2022-10-31T07:30:33.632Z,16.13
2022-10-31T07:33:00.234Z,30.20
2022-10-31T07:35:29.568Z,19.93
2022-10-31T07:37:56.578Z,19.80
2022-10-31T07:40:24.338Z,19.27
2022-10-31T07:42:53.217Z,27.33
2022-10-31T07:45:23.751Z,22.03
2022-10-31T07:47:54.835Z,26.27
2022-10-31T07:50:27.453Z,28.93
2022-10-31T07:53:00.428Z,26.83
2022-10-31T07:55:29.158Z,20.70
2022-10-31T07:58:02.716Z,25.77
2022-10-31T08:00:30.765Z,35.17
2022-10-31T08:03:01.943Z,31.23
2022-10-31T08:05:29.839Z,30.37
2022-10-31T08:07:57.321Z,36.40
2022-10-31T08:10:24.919Z,32.53
2022-10-31T08:12:58.717Z,29.43
2022-10-31T08:15:26.036Z,31.77
2022-10-31T08:17:53.057Z,26.67
2022-10-31T08:20:23.375Z,34.40
2022-10-31T08:23:04.569Z,36.47
2022-10-31T08:25:37.217Z,27.03
2022-10-31T08:28:06.401Z,39.13
2022-10-31T08:30:36.111Z,42.50
2022-10-31T08:33:10.926Z,29.37
2022-10-31T08:35:37.760Z,47.00
2022-10-31T08:38:05.317Z,40.93
2022-10-31T08:40:33.847Z,48.50
2022-10-31T08:43:06.149Z,54.27
2022-10-31T08:45:34.667Z,42.83
2022-10-31T08:48:03.432Z,43.57
2022-10-31T08:50:31.465Z,48.10
2022-10-31T08:53:10.691Z,41.93
2022-10-31T08:55:41.779Z,42.53
2022-10-31T08:58:11.838Z,36.23
2022-10-31T09:00:38.893Z,50.17
2022-10-31T09:03:10.197Z,51.43
2022-10-31T09:05:37.092Z,33.10
2022-10-31T09:08:05.431Z,36.27
2022-10-31T09:10:33.727Z,45.60
2022-10-31T09:13:07.538Z,34.43
2022-10-31T09:15:37.594Z,29.70
2022-10-31T09:18:04.636Z,30.50
2022-10-31T09:20:32.955Z,30.43
2022-10-31T09:23:01.596Z,31.77
2022-10-31T09:25:29.192Z,30.17
2022-10-31T09:28:00.143Z,24.73
2022-10-31T09:30:30.185Z,24.63
2022-10-31T09:33:00.174Z,31.07
2022-10-31T09:35:27.559Z,27.07
2022-10-31T09:37:59.330Z,28.10
2022-10-31T09:40:33.795Z,27.80
2022-10-31T09:43:23.609Z,37.67
2022-10-31T09:45:56.120Z,32.03
2022-10-31T09:49:08.692Z,25.97
2022-10-31T09:51:43.113Z,24.40
2022-10-31T09:54:44.459Z,28.67
2022-10-31T09:57:29.830Z,28.30
2022-10-31T10:00:00.423Z,22.67
2022-10-31T10:02:35.971Z,24.40
2022-10-31T10:05:05.792Z,22.27
2022-10-31T10:07:56.319Z,28.73
2022-10-31T10:10:58.720Z,25.57
2022-10-31T10:13:52.815Z,28.90
2022-10-31T10:16:40.972Z,32.27
2022-10-31T10:19:16.645Z,24.37
2022-10-31T10:22:03.165Z,22.20
2022-10-31T10:25:14.073Z,25.53
2022-10-31T10:27:43.341Z,35.17
2022-10-31T10:30:28.191Z,22.97
2022-10-31T10:32:59.645Z,26.17
2022-10-31T10:35:28.937Z,26.50
2022-10-31T10:38:08.668Z,38.43
2022-10-31T10:40:35.444Z,25.77
2022-10-31T10:43:20.595Z,28.83
2022-10-31T10:46:24.469Z,26.37
2022-10-31T10:49:01.037Z,21.50
2022-10-31T10:52:13.232Z,21.17
2022-10-31T10:54:38.729Z,23.07
2022-10-31T10:57:14.340Z,22.47
2022-10-31T10:59:41.124Z,27.37
2022-10-31T11:02:19.563Z,23.33
2022-10-31T11:05:34.887Z,25.70
2022-10-31T11:08:01.770Z,23.83
2022-10-31T11:10:31.415Z,22.13
2022-10-31T11:13:03.978Z,22.10
2022-10-31T11:15:37.989Z,21.73
2022-10-31T11:18:05.501Z,23.83
2022-10-31T11:20:38.072Z,28.97
2022-10-31T11:23:21.671Z,24.33
2022-10-31T11:25:55.293Z,24.57
2022-10-31T11:28:22.206Z,25.83
2022-10-31T11:30:51.715Z,23.97
2022-10-31T11:33:38.843Z,29.00
2022-10-31T11:36:21.896Z,25.23
2022-10-31T11:38:50.253Z,25.23
2022-10-31T11:41:16.856Z,30.70
2022-10-31T11:44:01.141Z,24.93
2022-10-31T11:46:39.272Z,27.37
2022-10-31T11:49:12.399Z,22.87
2022-10-31T11:51:39.041Z,29.53
2022-10-31T11:54:09.708Z,20.63
2022-10-31T11:56:41.764Z,27.67
2022-10-31T11:59:32.957Z,23.67
2022-10-31T12:02:01.848Z,33.23
2022-10-31T12:04:39.679Z,29.77
2022-10-31T12:07:06.447Z,25.10
2022-10-31T12:09:38.003Z,35.43
2022-10-31T12:12:30.517Z,27.50
2022-10-31T12:15:05.744Z,24.90
2022-10-31T12:17:45.071Z,24.30
2022-10-31T12:20:23.854Z,26.53
2022-10-31T12:22:59.805Z,28.33
2022-10-31T12:25:43.963Z,27.73
2022-10-31T12:28:47.219Z,29.97
2022-10-31T12:31:21.884Z,22.33
2022-10-31T12:33:59.220Z,22.73
2022-10-31T12:36:59.861Z,25.10
2022-10-31T12:39:51.800Z,22.67
2022-10-31T12:42:51.740Z,21.80
2022-10-31T12:45:51.895Z,21.30
2022-10-31T12:49:03.076Z,23.43
2022-10-31T12:51:55.663Z,20.00
2022-10-31T12:54:36.776Z,14.87
2022-10-31T12:57:32.325Z,19.20
2022-10-31T13:00:04.509Z,16.77
2022-10-31T13:02:41.551Z,24.40
2022-10-31T13:05:31.385Z,22.13
2022-10-31T13:08:01.131Z,13.77
2022-10-31T13:10:44.251Z,18.33
2022-10-31T13:13:28.294Z,14.97
2022-10-31T13:16:04.799Z,22.40
2022-10-31T13:18:41.309Z,14.20
2022-10-31T13:21:38.145Z,13.90
2022-10-31T13:24:13.596Z,17.27
2022-10-31T13:26:51.184Z,16.47
2022-10-31T13:29:43.684Z,12.23
2022-10-31T13:32:11.564Z,11.13
2022-10-31T13:34:44.710Z,12.43
2022-10-31T13:37:25.207Z,9.43
2022-10-31T13:40:13.559Z,10.17
2022-10-31T13:42:49.486Z,11.20
2022-10-31T13:45:21.762Z,11.80
2022-10-31T13:47:59.434Z,10.30
2022-10-31T13:50:29.811Z,8.07
2022-10-31T13:53:21.232Z,14.37
2022-10-31T13:55:51.114Z,14.13
2022-10-31T13:58:25.942Z,12.23
2022-10-31T14:01:03.903Z,12.47
2022-10-31T14:03:57.747Z,10.03
2022-10-31T14:06:18.548Z,15.80
2022-10-31T14:08:53.020Z,11.33
2022-10-31T14:11:31.577Z,14.27
2022-10-31T14:14:02.056Z,10.80
2022-10-31T14:16:31.638Z,11.40
2022-10-31T14:19:14.961Z,10.77
2022-10-31T14:21:44.873Z,9.10
2022-10-31T14:24:26.215Z,9.97
2022-10-31T14:26:57.438Z,11.27
2022-10-31T14:29:32.452Z,11.93
2022-10-31T14:32:20.978Z,9.50
2022-10-31T14:35:21.053Z,11.73
2022-10-31T14:38:15.612Z,13.67
2022-10-31T14:40:59.270Z,11.47
2022-10-31T14:43:37.578Z,12.93
2022-10-31T14:46:16.169Z,12.10
2022-10-31T14:49:06.403Z,11.00
2022-10-31T14:51:39.809Z,9.83
2022-10-31T14:54:09.478Z,9.73
2022-10-31T14:56:41.223Z,11.33
2022-10-31T14:59:16.189Z,9.57
2022-10-31T15:01:55.073Z,11.27
2022-10-31T15:04:31.142Z,8.67
2022-10-31T15:07:06.901Z,9.83
2022-10-31T15:09:35.689Z,9.00
2022-10-31T15:12:41.152Z,8.73
2022-10-31T15:15:19.963Z,9.57
2022-10-31T15:17:51.463Z,9.50
2022-10-31T15:20:21.415Z,10.20
2022-10-31T15:22:49.167Z,16.53
2022-10-31T15:25:21.896Z,9.73
2022-10-31T15:27:50.173Z,8.70
2022-10-31T15:30:23.055Z,7.80
2022-10-31T15:32:59.993Z,10.43
2022-10-31T15:35:29.512Z,15.13
2022-10-31T15:38:01.579Z,9.93
2022-10-31T15:40:29.421Z,10.23
2022-10-31T15:42:59.992Z,11.20
2022-10-31T15:45:28.503Z,11.10
2022-10-31T15:48:04.668Z,12.13
2022-10-31T15:50:37.039Z,14.00
2022-10-31T15:53:05.632Z,10.33
2022-10-31T15:55:39.342Z,9.63
2022-10-31T15:58:14.455Z,9.63
2022-10-31T16:00:41.544Z,9.87
2022-10-31T16:03:20.583Z,10.53
2022-10-31T16:05:53.017Z,9.40
2022-10-31T16:08:26.212Z,11.53
2022-10-31T16:10:53.846Z,9.87
2022-10-31T16:13:49.995Z,11.90
2022-10-31T16:16:35.544Z,11.70
2022-10-31T16:19:05.640Z,9.73
2022-10-31T16:21:38.119Z,9.13
2022-10-31T16:24:28.430Z,9.90
2022-10-31T16:27:00.151Z,11.43
2022-10-31T16:29:37.028Z,11.17
2022-10-31T16:32:06.314Z,8.50
2022-10-31T16:34:32.883Z,12.10
2022-10-31T16:36:59.531Z,12.23
2022-10-31T16:39:26.191Z,9.23
2022-10-31T16:41:55.807Z,11.97
2022-10-31T16:44:27.371Z,10.07
2022-10-31T16:47:16.513Z,11.20
2022-10-31T16:49:44.562Z,9.07
2022-10-31T16:52:11.371Z,12.83
2022-10-31T16:54:38.347Z,10.07
2022-10-31T16:57:06.833Z,10.30
2022-10-31T16:59:37.179Z,11.17
2022-10-31T17:02:04.943Z,12.20
2022-10-31T17:04:31.756Z,11.33
2022-10-31T17:06:58.426Z,13.13
2022-10-31T17:09:25.031Z,9.17
2022-10-31T17:11:53.975Z,9.10
2022-10-31T17:14:20.806Z,10.23
2022-10-31T17:16:47.394Z,15.77
2022-10-31T17:19:14.144Z,9.00
2022-10-31T17:21:41.191Z,15.03
2022-10-31T17:24:12.463Z,14.57
2022-10-31T17:26:39.106Z,14.17
2022-10-31T17:29:05.769Z,11.93
2022-10-31T17:31:36.345Z,13.10
2022-10-31T17:34:06.728Z,13.47
2022-10-31T17:36:34.746Z,14.27
2022-10-31T17:39:01.929Z,12.57
2022-10-31T17:41:28.507Z,14.13
2022-10-31T17:43:56.630Z,14.63
2022-10-31T17:46:23.229Z,19.10
2022-10-31T17:48:49.995Z,20.73
2022-10-31T17:51:16.649Z,14.10
2022-10-31T17:53:43.240Z,11.33
2022-10-31T17:56:10.838Z,8.43
2022-10-31T17:58:38.011Z,10.87
2022-10-31T18:01:13.748Z,11.07
2022-10-31T18:03:40.796Z,10.30
2022-10-31T18:06:07.945Z,9.20
2022-10-31T18:08:36.467Z,9.60
2022-10-31T18:11:09.584Z,7.50
2022-10-31T18:13:37.379Z,14.23
2022-10-31T18:16:20.959Z,9.97
2022-10-31T18:18:59.330Z,16.57
2022-10-31T18:21:26.016Z,11.70
2022-10-31T18:23:56.092Z,9.67
2022-10-31T18:26:23.853Z,10.30
2022-10-31T18:28:50.423Z,8.53
2022-10-31T18:31:17.492Z,16.17
2022-10-31T18:33:44.404Z,11.00
2022-10-31T18:36:12.044Z,12.13
2022-10-31T18:38:40.648Z,10.77
2022-10-31T18:41:08.476Z,10.43
2022-10-31T18:43:35.386Z,9.40
2022-10-31T18:46:09.039Z,10.03
2022-10-31T18:48:36.638Z,17.50
2022-10-31T18:51:08.684Z,8.63
2022-10-31T18:53:36.119Z,11.83
2022-10-31T18:56:06.572Z,10.93
2022-10-31T18:58:33.267Z,8.70
2022-10-31T19:01:00.596Z,8.70
2022-10-31T19:03:27.414Z,7.47
2022-10-31T19:05:57.093Z,12.47
2022-10-31T19:08:23.831Z,7.20
2022-10-31T19:10:50.531Z,9.33
2022-10-31T19:13:17.282Z,16.50
2022-10-31T19:15:43.814Z,11.33
2022-10-31T19:18:10.488Z,12.60
2022-10-31T19:20:40.261Z,8.20
2022-10-31T19:23:07.172Z,9.07
2022-10-31T19:25:33.802Z,12.57
2022-10-31T19:28:01.043Z,12.30
2022-10-31T19:30:27.857Z,11.37
2022-10-31T19:32:55.934Z,11.63
2022-10-31T19:35:22.590Z,10.47
2022-10-31T19:37:49.107Z,14.20
2022-10-31T19:40:16.799Z,7.07
2022-10-31T19:42:43.476Z,12.67
2022-10-31T19:45:11.049Z,12.03
2022-10-31T19:47:37.621Z,8.57
2022-10-31T19:50:05.719Z,9.70
2022-10-31T19:52:36.075Z,10.37
2022-10-31T19:55:02.853Z,10.53
2022-10-31T19:57:48.822Z,11.60
2022-10-31T20:00:16.351Z,9.70
2022-10-31T20:02:42.908Z,11.73
2022-10-31T20:05:09.659Z,23.60
2022-10-31T20:07:36.192Z,15.87
2022-10-31T20:10:02.915Z,16.70
2022-10-31T20:12:29.572Z,19.87
2022-10-31T20:14:56.192Z,13.10
2022-10-31T20:17:22.845Z,11.07
2022-10-31T20:19:51.840Z,8.23
2022-10-31T20:22:18.577Z,12.33
2022-10-31T20:24:45.224Z,15.53
2022-10-31T20:27:11.806Z,9.37
2022-10-31T20:29:38.438Z,10.80
2022-10-31T20:32:05.349Z,13.13
2022-10-31T20:34:31.941Z,11.50
2022-10-31T20:36:58.658Z,11.33
2022-10-31T20:39:25.427Z,12.00
2022-10-31T20:41:52.059Z,13.40
2022-10-31T20:44:18.893Z,12.70
2022-10-31T20:46:45.876Z,11.27
2022-10-31T20:49:12.586Z,12.10
2022-10-31T20:51:39.318Z,8.70
2022-10-31T20:54:06.886Z,14.73
2022-10-31T20:56:33.489Z,8.67
2022-10-31T20:59:00.263Z,13.77
2022-10-31T21:01:29.813Z,12.00
2022-10-31T21:03:58.413Z,12.30
2022-10-31T21:06:25.505Z,14.27
2022-10-31T21:08:52.488Z,15.53
2022-10-31T21:11:21.814Z,9.73
2022-10-31T21:13:49.539Z,9.73
2022-10-31T21:16:22.885Z,15.67
2022-10-31T21:18:50.353Z,9.87
2022-10-31T21:21:27.606Z,12.60
2022-10-31T21:24:02.213Z,12.40
2022-10-31T21:26:31.804Z,13.57
2022-10-31T21:28:59.196Z,16.03
2022-10-31T21:31:28.280Z,12.07
2022-10-31T21:33:55.584Z,10.93
2022-10-31T21:36:22.408Z,9.83
2022-10-31T21:38:53.153Z,11.93
2022-10-31T21:41:20.638Z,13.90
2022-10-31T21:43:49.742Z,12.37
2022-10-31T21:50:07.722Z,12.17
2022-10-31T21:52:34.460Z,10.10
2022-10-31T21:55:01.044Z,11.33
2022-10-31T21:57:27.641Z,11.53
2022-10-31T21:59:54.236Z,9.27
2022-10-31T22:02:20.956Z,12.03
2022-10-31T22:04:50.198Z,7.50
2022-10-31T22:07:26.066Z,11.33
2022-10-31T22:09:52.672Z,12.73
2022-10-31T22:12:21.907Z,7.53
2022-10-31T22:14:48.477Z,12.20
2022-10-31T22:17:15.156Z,10.27
2022-10-31T22:19:41.737Z,11.17
2022-10-31T22:22:08.298Z,14.07
2022-10-31T22:24:34.839Z,11.43
2022-10-31T22:27:01.473Z,9.80
2022-10-31T22:29:28.838Z,10.67
2022-10-31T22:31:58.805Z,10.47
2022-10-31T22:34:27.236Z,8.37
2022-10-31T22:36:55.409Z,10.60
2022-10-31T22:39:22.012Z,12.03
2022-10-31T22:41:48.746Z,9.10
2022-10-31T22:44:15.378Z,13.33
2022-10-31T22:46:42.029Z,11.93
2022-10-31T22:49:13.906Z,14.37
2022-10-31T22:51:41.449Z,8.07
2022-10-31T22:54:15.784Z,10.83
2022-10-31T22:56:42.735Z,10.70
2022-10-31T22:59:13.620Z,7.70
2022-10-31T23:01:40.542Z,10.23
2022-10-31T23:04:07.456Z,9.97
2022-10-31T23:06:39.089Z,10.10
2022-10-31T23:09:07.325Z,16.30
2022-10-31T23:11:40.558Z,16.23
2022-10-31T23:14:12.131Z,13.40
2022-10-31T23:16:47.753Z,13.30
2022-10-31T23:19:22.096Z,11.87
2022-10-31T23:21:57.572Z,13.90
2022-10-31T23:24:29.781Z,12.20
2022-10-31T23:27:10.130Z,12.83
2022-10-31T23:29:51.735Z,17.77
2022-10-31T23:32:27.519Z,10.67
2022-10-31T23:35:01.504Z,12.17
2022-10-31T23:37:30.587Z,10.93
2022-10-31T23:39:57.624Z,11.00
2022-10-31T23:42:26.545Z,12.30
2022-10-31T23:44:56.054Z,12.37
2022-10-31T23:47:23.440Z,11.77
2022-10-31T23:49:50.830Z,9.63
2022-10-31T23:52:17.738Z,13.00
2022-10-31T23:54:44.319Z,18.23
2022-10-31T23:57:13.753Z,11.73
2022-10-31T23:59:40.314Z,9.30
